Walton, New York
Current Conditions -  °F | °C
As of 9:35 PM on Tuesday 21 Oct 2014 (Local Time) from KMSV Reporting Station
Overcast Overcast  
Wind Chill: 48°   Ceiling: 400
Heat Index: 48°   Visibility: 7mi
Dew Point: 48°   Wind: 0mph
Humidity: 100%   Direction: NA
Pressure: 29.95"   Gusts: NA
Location:  42.17°N, 75.13°W
Report Text: KMSV 220135Z AUTO 00000KT 7SM OVC004 09/09 A2995 RMK AO1
Loading
Personal Weather Stations






























Interactive Weather Map
Tropical Storm Tracking
New forecast layout! Learn more

10-Day Weather Forecast

Advertisements
Track Severe Weather on mobile